Time;durP1;ratioP1;P1;durP2;ratioP2;P2;SDS_P1;SDS_P2;PMS_P1;PMS_P2;Temp;Humidity;BMP_temperature;BMP_pressure;BME280_temperature;BME280_humidity;BME280_pressure;Samples;Min_cycle;Max_cycle;Signal;HPM_P1;HPM_P2
2022/07/06 00:01:33;;;;;;;7.60;4.07;;;;;;;;;;5131816;28;20047;-69
2022/07/06 00:04:05;;;;;;;7.47;3.80;;;;;;;;;;5130477;28;20023;-69
2022/07/06 00:06:55;;;;;;;7.78;3.33;;;;;;;;;;5111254;27;20392;-69
2022/07/06 00:11:01;;;;;;;5.45;3.28;;;;;;;;;;5112092;27;20412;-69
2022/07/06 00:13:28;;;;;;;6.18;3.40;;;;;;;;;;5110991;28;20031;-69
2022/07/06 00:15:54;;;;;;;5.70;3.90;;;;;;;;;;5109998;28;20030;-69
2022/07/06 00:20:44;;;;;;;9.00;4.82;;;;;;;;;;5111553;27;20426;-69
2022/07/06 00:23:10;;;;;;;7.93;5.13;;;;;;;;;;5110039;28;20514;-68
2022/07/06 00:26:28;;;;;;;8.25;4.90;;;;;;;;;;5112088;27;20435;-69
2022/07/06 00:28:54;;;;;;;8.95;5.38;;;;;;;;;;5111099;28;20022;-69
2022/07/06 00:32:53;;;;;;;9.32;4.57;;;;;;;;;;5111843;27;20434;-69
2022/07/06 00:35:19;;;;;;;9.25;4.80;;;;;;;;;;5110979;28;20020;-69
2022/07/06 00:37:45;;;;;;;8.82;4.40;;;;;;;;;;5111338;28;20063;-69
2022/07/06 00:42:07;;;;;;;8.38;5.03;;;;;;;;;;5111346;27;20384;-69
2022/07/06 00:45:51;;;;;;;8.32;4.30;;;;;;;;;;5111549;27;20416;-68
2022/07/06 00:51:42;;;;;;;7.18;4.00;;;;;;;;;;5111591;27;20401;-69
2022/07/06 00:56:24;;;;;;;7.70;4.30;;;;;;;;;;5111416;27;20393;-69
2022/07/06 00:58:50;;;;;;;8.48;4.03;;;;;;;;;;5111376;28;20486;-68
2022/07/06 01:01:16;;;;;;;10.88;4.80;;;;;;;;;;5111372;28;20361;-69
2022/07/06 01:06:23;;;;;;;8.43;4.20;;;;;;;;;;5111687;27;20484;-69
2022/07/06 01:11:19;;;;;;;6.95;4.10;;;;;;;;;;5111334;27;20453;-69
2022/07/06 01:13:46;;;;;;;11.18;4.30;;;;;;;;;;5111386;28;20038;-69
2022/07/06 01:18:23;;;;;;;6.90;4.05;;;;;;;;;;5111150;27;20469;-68
2022/07/06 01:20:49;;;;;;;7.75;4.75;;;;;;;;;;5110113;28;20056;-69
2022/07/06 01:23:15;;;;;;;8.43;3.85;;;;;;;;;;5110009;28;20024;-69
2022/07/06 01:27:02;;;;;;;6.38;3.95;;;;;;;;;;5111853;27;20420;-69
2022/07/06 01:30:25;;;;;;;9.73;4.50;;;;;;;;;;5132130;27;20312;-69
2022/07/06 01:33:45;;;;;;;9.05;4.80;;;;;;;;;;5071104;28;20427;-69
2022/07/06 01:36:32;;;;;;;8.40;4.35;;;;;;;;;;5111785;27;20780;-69
2022/07/06 01:38:58;;;;;;;7.28;3.80;;;;;;;;;;5111107;28;20384;-69
2022/07/06 01:41:25;;;;;;;7.05;4.03;;;;;;;;;;5110061;28;20475;-69
2022/07/06 01:44:13;;;;;;;8.77;4.00;;;;;;;;;;5112264;27;20412;-69
2022/07/06 01:46:40;;;;;;;10.85;3.75;;;;;;;;;;5110971;28;20511;-69
2022/07/06 01:49:06;;;;;;;7.53;4.22;;;;;;;;;;5111334;28;20054;-68
2022/07/06 01:53:39;;;;;;;9.85;3.80;;;;;;;;;;5111111;27;20772;-68
2022/07/06 01:56:46;;;;;;;7.05;3.90;;;;;;;;;;5112036;27;20400;-68
2022/07/06 01:59:12;;;;;;;8.25;3.63;;;;;;;;;;5111204;28;20483;-69
2022/07/06 02:01:38;;;;;;;10.45;3.80;;;;;;;;;;5111282;28;20059;-69
2022/07/06 02:04:04;;;;;;;6.70;3.40;;;;;;;;;;5111285;28;20043;-69
2022/07/06 02:06:45;;;;;;;6.03;3.30;;;;;;;;;;5111326;27;20932;-69
2022/07/06 02:09:11;;;;;;;7.90;3.33;;;;;;;;;;5111595;28;20027;-69
2022/07/06 02:11:38;;;;;;;7.47;3.60;;;;;;;;;;5111509;28;20020;-69
2022/07/06 02:14:04;;;;;;;7.97;3.78;;;;;;;;;;5111000;28;20028;-69
2022/07/06 02:17:32;;;;;;;7.35;3.70;;;;;;;;;;5112134;27;20420;-68
2022/07/06 02:19:59;;;;;;;6.72;3.92;;;;;;;;;;5126833;28;20438;-69
2022/07/06 02:22:25;;;;;;;10.77;4.20;;;;;;;;;;5111304;28;20391;-69
2022/07/06 02:24:51;;;;;;;9.18;4.13;;;;;;;;;;5127105;28;20425;-69
2022/07/06 02:28:22;;;;;;;8.27;3.55;;;;;;;;;;5110958;27;20487;-69
2022/07/06 02:31:28;;;;;;;7.50;3.83;;;;;;;;;;5111530;27;20473;-69
2022/07/06 02:33:54;;;;;;;6.60;3.88;;;;;;;;;;5111025;28;20027;-69
2022/07/06 02:36:20;;;;;;;7.05;4.30;;;;;;;;;;5110007;28;20038;-69
2022/07/06 02:38:46;;;;;;;9.48;4.32;;;;;;;;;;5111588;28;20016;-69
2022/07/06 02:41:12;;;;;;;8.45;4.75;;;;;;;;;;5109579;28;20024;-70
2022/07/06 02:43:39;;;;;;;7.07;3.80;;;;;;;;;;5111179;28;20066;-70
2022/07/06 02:49:05;;;;;;;7.40;3.88;;;;;;;;;;5111201;27;20485;-69
2022/07/06 02:51:31;;;;;;;7.57;4.18;;;;;;;;;;5127215;28;20552;-69
2022/07/06 02:53:57;;;;;;;8.10;3.67;;;;;;;;;;5127075;28;20024;-69
2022/07/06 02:56:23;;;;;;;7.90;4.07;;;;;;;;;;5111172;28;20543;-69
2022/07/06 03:00:06;;;;;;;7.47;3.58;;;;;;;;;;5112016;27;20466;-69
2022/07/06 03:04:30;;;;;;;8.38;3.60;;;;;;;;;;5070911;28;20775;-69
2022/07/06 03:06:56;;;;;;;6.85;3.80;;;;;;;;;;5069827;28;20063;-69
2022/07/06 03:09:22;;;;;;;6.80;3.90;;;;;;;;;;5070401;28;20057;-69
2022/07/06 03:11:48;;;;;;;9.52;3.25;;;;;;;;;;5070988;28;20082;-69
2022/07/06 03:14:14;;;;;;;5.72;3.33;;;;;;;;;;5070679;28;20028;-69
2022/07/06 03:17:44;;;;;;;6.47;3.05;;;;;;;;;;5070676;28;20830;-69
2022/07/06 03:20:10;;;;;;;5.78;2.95;;;;;;;;;;5071435;28;20112;-69
2022/07/06 03:22:37;;;;;;;9.05;3.33;;;;;;;;;;5070859;28;20021;-69
2022/07/06 03:25:03;;;;;;;11.45;3.78;;;;;;;;;;5070418;28;20035;-70
2022/07/06 03:28:23;;;;;;;8.98;3.95;;;;;;;;;;5111516;27;20424;-69
2022/07/06 03:30:49;;;;;;;7.93;3.95;;;;;;;;;;5110959;28;20028;-69
2022/07/06 03:33:15;;;;;;;7.53;3.70;;;;;;;;;;5111553;28;20475;-69
2022/07/06 03:36:12;;;;;;;8.75;4.03;;;;;;;;;;5111967;27;20420;-70
2022/07/06 03:38:38;;;;;;;8.75;3.90;;;;;;;;;;5111329;28;20422;-70
2022/07/06 03:41:04;;;;;;;10.57;4.88;;;;;;;;;;5110083;28;20081;-70
2022/07/06 03:45:29;;;;;;;6.80;3.40;;;;;;;;;;5070700;28;20412;-71
2022/07/06 03:51:18;;;;;;;9.13;3.83;;;;;;;;;;5111137;27;20784;-69
2022/07/06 03:53:44;;;;;;;7.20;3.53;;;;;;;;;;5111404;28;20031;-69
2022/07/06 03:56:29;;;;;;;5.60;3.53;;;;;;;;;;5112186;27;20416;-69
2022/07/06 03:58:56;;;;;;;9.80;4.43;;;;;;;;;;5109768;28;20031;-69
2022/07/06 04:01:22;;;;;;;10.32;3.85;;;;;;;;;;5111319;28;20028;-69
2022/07/06 04:09:45;;;;;;;8.40;3.67;;;;;;;;;;5111810;27;20420;-70
2022/07/06 04:12:11;;;;;;;7.03;3.83;;;;;;;;;;5110068;28;20030;-70
2022/07/06 04:17:53;;;;;;;5.88;3.10;;;;;;;;;;5194474;27;20105;-69
2022/07/06 04:20:23;;;;;;;5.28;2.80;;;;;;;;;;5173470;27;20026;-70
2022/07/06 04:22:49;;;;;;;8.52;3.88;;;;;;;;;;5173376;27;20463;-70
2022/07/06 04:25:16;;;;;;;6.50;3.92;;;;;;;;;;5173384;27;20041;-70
2022/07/06 04:27:42;;;;;;;6.95;3.80;;;;;;;;;;5172792;27;20033;-70
2022/07/06 04:30:09;;;;;;;9.27;3.42;;;;;;;;;;5173443;27;20053;-70
2022/07/06 04:32:35;;;;;;;9.93;3.85;;;;;;;;;;5173296;27;20483;-70
2022/07/06 04:35:02;;;;;;;6.93;3.28;;;;;;;;;;5172642;27;20101;-70
2022/07/06 04:39:40;;;;;;;7.30;4.28;;;;;;;;;;5111664;27;20416;-70
2022/07/06 04:42:30;;;;;;;6.95;3.78;;;;;;;;;;5111076;27;20405;-70
2022/07/06 04:46:50;;;;;;;6.25;3.53;;;;;;;;;;5111451;27;20416;-70
2022/07/06 04:49:16;;;;;;;8.35;3.67;;;;;;;;;;5109665;28;20020;-70
2022/07/06 04:51:42;;;;;;;6.85;3.67;;;;;;;;;;5111494;28;20020;-70
2022/07/06 04:59:03;;;;;;;8.60;3.35;;;;;;;;;;5111371;27;20488;-71
2022/07/06 05:01:29;;;;;;;10.05;3.97;;;;;;;;;;5111322;28;20028;-71
2022/07/06 05:05:13;;;;;;;7.25;3.55;;;;;;;;;;5112179;27;20411;-70
2022/07/06 05:07:39;;;;;;;5.65;3.42;;;;;;;;;;5110332;28;20445;-70
2022/07/06 05:11:50;;;;;;;8.43;3.42;;;;;;;;;;5112120;27;20420;-72
2022/07/06 05:14:16;;;;;;;6.13;3.38;;;;;;;;;;5127219;28;20038;-74
2022/07/06 05:17:40;;;;;;;8.82;4.47;;;;;;;;;;5111042;27;20473;-70
2022/07/06 05:20:07;;;;;;;10.23;5.60;;;;;;;;;;5111336;28;20024;-69
2022/07/06 05:22:33;;;;;;;13.23;7.28;;;;;;;;;;5111290;28;20020;-70
2022/07/06 05:25:08;;;;;;;8.15;4.80;;;;;;;;;;5031918;28;20484;-68
2022/07/06 05:27:34;;;;;;;8.75;4.95;;;;;;;;;;5031277;28;20033;-70
2022/07/06 05:30:00;;;;;;;7.70;3.95;;;;;;;;;;5030467;28;20072;-70
2022/07/06 05:32:27;;;;;;;5.70;2.90;;;;;;;;;;5029616;28;20072;-70
2022/07/06 05:34:53;;;;;;;7.18;3.28;;;;;;;;;;5030750;28;20029;-70
2022/07/06 05:37:19;;;;;;;6.57;3.45;;;;;;;;;;5030058;28;20470;-70
2022/07/06 05:39:47;;;;;;;9.80;3.30;;;;;;;;;;5030606;28;20022;-73
2022/07/06 05:46:10;;;;;;;6.95;3.25;;;;;;;;;;5111116;27;20416;-74
2022/07/06 05:52:59;;;;;;;7.35;3.50;;;;;;;;;;5110936;27;20416;-73
2022/07/06 05:55:25;;;;;;;3.95;3.00;;;;;;;;;;5111326;28;20034;-73
2022/07/06 05:57:53;;;;;;;7.35;3.42;;;;;;;;;;5110854;28;20422;-74
2022/07/06 06:00:20;;;;;;;7.20;3.47;;;;;;;;;;5109607;28;20027;-73
2022/07/06 06:02:46;;;;;;;7.90;2.85;;;;;;;;;;5109962;28;20054;-74
2022/07/06 06:07:15;;;;;;;6.60;3.47;;;;;;;;;;5068068;28;20411;-74
2022/07/06 06:11:42;;;;;;;9.05;3.08;;;;;;;;;;5066161;28;20415;-74
2022/07/06 06:15:03;;;;;;;9.07;3.53;;;;;;;;;;5107999;27;20476;-73
2022/07/06 06:17:29;;;;;;;5.45;2.90;;;;;;;;;;5108158;28;20036;-77
2022/07/06 06:21:35;;;;;;;8.95;3.38;;;;;;;;;;5110912;27;20415;-72
2022/07/06 06:25:48;;;;;;;6.78;3.13;;;;;;;;;;5104630;27;20420;-72
2022/07/06 06:28:14;;;;;;;6.20;3.42;;;;;;;;;;5106574;28;20049;-73
2022/07/06 06:32:44;;;;;;;5.88;3.42;;;;;;;;;;5066676;28;20414;-74
2022/07/06 06:35:10;;;;;;;8.63;3.75;;;;;;;;;;5066806;28;20087;-74
2022/07/06 06:39:02;;;;;;;6.90;3.88;;;;;;;;;;5107981;27;20489;-77
2022/07/06 06:42:39;;;;;;;8.95;3.55;;;;;;;;;;5102759;27;20423;-74
2022/07/06 06:45:06;;;;;;;7.43;3.50;;;;;;;;;;5089468;28;20037;-72
2022/07/06 06:47:32;;;;;;;6.28;3.40;;;;;;;;;;5087204;28;20031;-73
2022/07/06 06:49:58;;;;;;;7.97;3.22;;;;;;;;;;5088124;28;20047;-75
2022/07/06 06:52:24;;;;;;;7.22;3.55;;;;;;;;;;5088361;28;20025;-74
2022/07/06 06:54:50;;;;;;;9.50;3.42;;;;;;;;;;5090192;28;20050;-75
2022/07/06 06:59:10;;;;;;;7.50;3.90;;;;;;;;;;5050060;28;20471;-73
2022/07/06 07:04:32;;;;;;;8.05;3.78;;;;;;;;;;5092641;27;20339;-75
2022/07/06 07:06:58;;;;;;;6.30;3.33;;;;;;;;;;5074476;28;20448;-75
2022/07/06 07:09:24;;;;;;;7.18;3.72;;;;;;;;;;5086881;28;20427;-76
2022/07/06 07:13:53;;;;;;;10.55;3.72;;;;;;;;;;5069279;28;20419;-72
2022/07/06 07:16:19;;;;;;;5.20;2.97;;;;;;;;;;5069318;28;20025;-74
2022/07/06 07:18:45;;;;;;;6.55;3.58;;;;;;;;;;5066344;28;20021;-73
2022/07/06 07:21:11;;;;;;;6.93;3.55;;;;;;;;;;5068698;28;20020;-74
2022/07/06 07:23:38;;;;;;;5.95;3.50;;;;;;;;;;5068128;28;20112;-74
2022/07/06 07:26:04;;;;;;;9.43;3.95;;;;;;;;;;5069646;28;20104;-74
2022/07/06 07:28:30;;;;;;;7.15;3.72;;;;;;;;;;5069713;28;20025;-75
2022/07/06 07:30:56;;;;;;;10.05;3.80;;;;;;;;;;5069595;28;20108;-77
2022/07/06 07:33:22;;;;;;;9.13;3.38;;;;;;;;;;5061451;28;20037;-75
2022/07/06 07:35:48;;;;;;;7.72;3.97;;;;;;;;;;5056721;28;20033;-76
2022/07/06 07:39:34;;;;;;;7.85;3.53;;;;;;;;;;5115394;27;20490;-77
2022/07/06 07:44:11;;;;;;;6.75;3.67;;;;;;;;;;5108727;27;20424;-76
2022/07/06 07:48:05;;;;;;;5.70;3.25;;;;;;;;;;5068366;28;20504;-76
2022/07/06 07:51:56;;;;;;;7.78;3.60;;;;;;;;;;5110241;27;20834;-76
2022/07/06 07:54:22;;;;;;;5.68;3.60;;;;;;;;;;5110967;28;20475;-77
2022/07/06 07:56:48;;;;;;;6.13;3.97;;;;;;;;;;5110025;28;20487;-77
2022/07/06 07:59:14;;;;;;;6.35;3.45;;;;;;;;;;5108654;28;20028;-77
2022/07/06 08:01:41;;;;;;;6.10;3.60;;;;;;;;;;5105990;28;20031;-78
2022/07/06 08:05:31;;;;;;;8.20;3.58;;;;;;;;;;5110447;27;20485;-77
2022/07/06 08:07:57;;;;;;;6.47;3.67;;;;;;;;;;5105230;28;20039;-76
2022/07/06 08:11:19;;;;;;;5.50;3.50;;;;;;;;;;5109196;27;20483;-77
2022/07/06 08:16:51;;;;;;;5.57;3.35;;;;;;;;;;5086888;27;20425;-77
2022/07/06 08:19:17;;;;;;;6.45;4.10;;;;;;;;;;5099104;28;20108;-77
2022/07/06 08:21:43;;;;;;;7.45;3.83;;;;;;;;;;5080274;28;20028;-76
2022/07/06 08:24:09;;;;;;;6.25;3.22;;;;;;;;;;5079939;28;20029;-77
2022/07/06 08:26:36;;;;;;;5.95;3.42;;;;;;;;;;5079383;28;20039;-77
2022/07/06 08:29:02;;;;;;;7.75;3.70;;;;;;;;;;5088207;28;20024;-77
2022/07/06 08:31:28;;;;;;;6.32;3.83;;;;;;;;;;5089853;28;20020;-76
2022/07/06 08:33:55;;;;;;;4.82;3.55;;;;;;;;;;5083476;28;20028;-76
2022/07/06 08:38:56;;;;;;;6.32;3.47;;;;;;;;;;5107895;27;20412;-78
2022/07/06 08:41:23;;;;;;;8.40;3.78;;;;;;;;;;5100456;28;20055;-77
2022/07/06 08:43:50;;;;;;;9.05;3.63;;;;;;;;;;5117879;27;20067;-77
2022/07/06 08:46:17;;;;;;;7.70;3.55;;;;;;;;;;5102119;28;20028;-77
2022/07/06 08:48:43;;;;;;;6.72;4.00;;;;;;;;;;5102514;28;20036;-77
2022/07/06 08:51:10;;;;;;;6.22;3.53;;;;;;;;;;5102301;28;20024;-77
2022/07/06 08:53:36;;;;;;;6.80;4.18;;;;;;;;;;5107167;28;20035;-76
2022/07/06 08:56:03;;;;;;;6.00;3.80;;;;;;;;;;5126103;28;20480;-77
2022/07/06 08:58:29;;;;;;;10.55;3.78;;;;;;;;;;5109145;28;20471;-77
2022/07/06 09:02:03;;;;;;;6.32;3.58;;;;;;;;;;5104041;27;20791;-78
2022/07/06 09:06:02;;;;;;;6.20;3.33;;;;;;;;;;5109879;27;20396;-78
2022/07/06 09:08:30;;;;;;;6.53;3.70;;;;;;;;;;5110174;28;20035;-76
2022/07/06 09:10:56;;;;;;;7.40;4.60;;;;;;;;;;5109541;28;20049;-78
2022/07/06 09:13:22;;;;;;;5.55;3.55;;;;;;;;;;5109240;28;20360;-76
2022/07/06 09:15:48;;;;;;;6.43;3.75;;;;;;;;;;5109429;28;20388;-78
2022/07/06 09:21:05;;;;;;;1070.20;715.97;;;;;;;;;;5110698;27;20485;-76
2022/07/06 09:23:31;;;;;;;1081.43;782.13;;;;;;;;;;5105679;28;20051;-76
2022/07/06 09:25:57;;;;;;;454.75;301.58;;;;;;;;;;5103824;28;20031;-75
2022/07/06 09:28:23;;;;;;;6.47;4.10;;;;;;;;;;5108657;28;20070;-76
2022/07/06 09:30:49;;;;;;;7.18;3.67;;;;;;;;;;5098725;28;20053;-77
2022/07/06 09:33:18;;;;;;;6.78;3.60;;;;;;;;;;5100704;28;20051;-77
2022/07/06 09:35:45;;;;;;;5.88;3.80;;;;;;;;;;5106604;28;20020;-76
2022/07/06 09:38:15;;;;;;;5.93;3.72;;;;;;;;;;5105127;28;20030;-77
2022/07/06 09:42:49;;;;;;;5.82;3.47;;;;;;;;;;5106270;27;20404;-77
2022/07/06 09:45:54;;;;;;;5.13;3.38;;;;;;;;;;5068579;28;20415;-77
2022/07/06 09:48:27;;;;;;;8.48;4.00;;;;;;;;;;5070011;28;20539;-77
2022/07/06 09:50:57;;;;;;;6.40;3.42;;;;;;;;;;5069550;28;20439;-77
2022/07/06 09:53:24;;;;;;;9.02;3.88;;;;;;;;;;5070231;28;20111;-74
2022/07/06 09:55:51;;;;;;;6.90;3.20;;;;;;;;;;5068669;28;20496;-78
2022/07/06 09:58:18;;;;;;;6.15;3.67;;;;;;;;;;5067935;28;20047;-77
2022/07/06 10:00:45;;;;;;;8.75;4.00;;;;;;;;;;5068770;28;20024;-76
2022/07/06 10:03:12;;;;;;;6.03;3.42;;;;;;;;;;5069557;28;20052;-78
2022/07/06 10:05:39;;;;;;;6.68;4.18;;;;;;;;;;5068151;28;20043;-76
2022/07/06 10:08:06;;;;;;;8.35;4.13;;;;;;;;;;5069893;28;20029;-80
2022/07/06 10:10:33;;;;;;;6.05;3.70;;;;;;;;;;5069443;28;20025;-76
2022/07/06 10:14:58;;;;;;;6.63;3.65;;;;;;;;;;5109963;27;20420;-75
2022/07/06 10:17:25;;;;;;;5.72;3.70;;;;;;;;;;5106359;28;20566;-75
2022/07/06 10:19:51;;;;;;;6.10;3.25;;;;;;;;;;5104216;28;20024;-75
2022/07/06 10:22:18;;;;;;;7.43;4.18;;;;;;;;;;5101274;28;20048;-76
2022/07/06 10:24:44;;;;;;;6.07;3.70;;;;;;;;;;5093016;28;20040;-77
2022/07/06 10:27:11;;;;;;;8.50;4.03;;;;;;;;;;5106025;28;20374;-77
2022/07/06 10:29:37;;;;;;;8.45;3.72;;;;;;;;;;5098048;28;20348;-78
2022/07/06 10:32:04;;;;;;;6.78;3.42;;;;;;;;;;5105182;28;20031;-80
2022/07/06 10:34:30;;;;;;;6.93;4.28;;;;;;;;;;5107756;28;20032;-79
2022/07/06 10:36:56;;;;;;;5.47;3.38;;;;;;;;;;5110167;28;20097;-79
2022/07/06 10:42:43;;;;;;;7.50;3.50;;;;;;;;;;5084782;28;20128;-78
2022/07/06 10:45:10;;;;;;;9.48;6.30;;;;;;;;;;5090485;28;20422;-80
2022/07/06 10:47:37;;;;;;;8.73;5.50;;;;;;;;;;5088800;28;20384;-78
2022/07/06 10:50:05;;;;;;;7.45;4.07;;;;;;;;;;5090395;28;20028;-78
2022/07/06 10:52:50;;;;;;;5.45;3.78;;;;;;;;;;5096294;28;20035;-78
2022/07/06 10:55:29;;;;;;;8.45;3.58;;;;;;;;;;5107986;28;20031;-78
2022/07/06 10:57:56;;;;;;;7.30;3.55;;;;;;;;;;5099313;28;20034;-80
2022/07/06 11:00:22;;;;;;;5.97;3.50;;;;;;;;;;5110036;28;20099;-79
2022/07/06 11:02:48;;;;;;;5.72;3.38;;;;;;;;;;5103258;28;20459;-78
2022/07/06 11:05:33;;;;;;;6.78;3.80;;;;;;;;;;5103435;28;20114;-80
2022/07/06 11:08:01;;;;;;;6.47;3.63;;;;;;;;;;5107897;28;20056;-79
2022/07/06 11:10:27;;;;;;;5.00;3.20;;;;;;;;;;5110290;28;20054;-82
2022/07/06 11:13:00;;;;;;;6.32;3.30;;;;;;;;;;5108445;28;20047;-79
2022/07/06 11:15:45;;;;;;;8.10;4.15;;;;;;;;;;5108734;28;20019;-80
2022/07/06 11:18:12;;;;;;;8.82;4.05;;;;;;;;;;5108840;28;20464;-79
2022/07/06 11:20:38;;;;;;;8.48;3.95;;;;;;;;;;5093274;28;20028;-78
2022/07/06 11:23:05;;;;;;;6.40;3.85;;;;;;;;;;5092150;28;20118;-78
2022/07/06 11:25:31;;;;;;;5.97;3.95;;;;;;;;;;5097666;28;20027;-77
2022/07/06 11:27:57;;;;;;;8.20;4.05;;;;;;;;;;5094842;28;20376;-79
2022/07/06 11:30:23;;;;;;;8.00;3.40;;;;;;;;;;5096057;28;20032;-79
2022/07/06 11:32:50;;;;;;;8.57;4.32;;;;;;;;;;5096285;28;20032;-77
2022/07/06 11:35:25;;;;;;;6.32;3.55;;;;;;;;;;5093734;28;20361;-82
2022/07/06 11:37:51;;;;;;;5.53;3.55;;;;;;;;;;5093227;28;20498;-81
2022/07/06 11:40:19;;;;;;;7.35;3.42;;;;;;;;;;5093687;28;20050;-79
2022/07/06 11:42:54;;;;;;;7.32;3.92;;;;;;;;;;5082286;28;20024;-82
2022/07/06 11:45:27;;;;;;;5.90;3.40;;;;;;;;;;5093790;28;20028;-80
2022/07/06 11:48:09;;;;;;;6.47;4.10;;;;;;;;;;5092441;28;20022;-80
2022/07/06 11:50:36;;;;;;;5.25;3.22;;;;;;;;;;5074069;28;20536;-80
2022/07/06 11:53:02;;;;;;;5.65;3.30;;;;;;;;;;5093888;28;20388;-80
2022/07/06 11:55:29;;;;;;;6.25;4.05;;;;;;;;;;5091924;28;20039;-80
2022/07/06 11:57:57;;;;;;;6.13;3.35;;;;;;;;;;5085686;28;20434;-79
2022/07/06 12:00:23;;;;;;;4.38;3.33;;;;;;;;;;5093968;28;20016;-81
2022/07/06 12:03:01;;;;;;;5.88;3.55;;;;;;;;;;5089683;28;20020;-81
2022/07/06 12:05:31;;;;;;;7.28;3.80;;;;;;;;;;5095420;28;20599;-82
2022/07/06 12:08:09;;;;;;;9.40;3.95;;;;;;;;;;5094790;28;20024;-74
2022/07/06 12:10:37;;;;;;;8.23;3.80;;;;;;;;;;5093398;28;20040;-75
2022/07/06 12:13:04;;;;;;;5.95;3.65;;;;;;;;;;5093354;28;20028;-75
2022/07/06 12:15:30;;;;;;;6.22;3.33;;;;;;;;;;5093777;28;20089;-75
2022/07/06 12:17:56;;;;;;;5.68;3.33;;;;;;;;;;5092038;28;20399;-74
2022/07/06 12:20:24;;;;;;;6.38;3.88;;;;;;;;;;5092340;28;20067;-74
2022/07/06 12:22:50;;;;;;;4.82;3.38;;;;;;;;;;5094019;28;20424;-74
2022/07/06 12:25:32;;;;;;;4.97;3.42;;;;;;;;;;5095063;28;20032;-75
2022/07/06 12:27:58;;;;;;;6.35;3.45;;;;;;;;;;5095290;28;20030;-75
2022/07/06 12:30:24;;;;;;;5.43;3.45;;;;;;;;;;5095263;28;20024;-76
2022/07/06 12:33:09;;;;;;;5.93;3.78;;;;;;;;;;5094670;28;20559;-75
2022/07/06 12:35:35;;;;;;;6.00;3.75;;;;;;;;;;5093782;28;20051;-75
2022/07/06 12:38:01;;;;;;;7.25;4.28;;;;;;;;;;5094034;28;20361;-75
2022/07/06 12:40:28;;;;;;;6.20;4.03;;;;;;;;;;5094500;28;20296;-75
2022/07/06 12:42:54;;;;;;;7.40;3.95;;;;;;;;;;5095052;28;20430;-75
2022/07/06 12:45:26;;;;;;;5.30;3.50;;;;;;;;;;5095002;28;20031;-75
2022/07/06 12:48:04;;;;;;;4.95;3.22;;;;;;;;;;5093357;28;20480;-75
2022/07/06 12:50:34;;;;;;;8.70;3.50;;;;;;;;;;5094973;28;20108;-75
2022/07/06 12:53:00;;;;;;;6.03;3.60;;;;;;;;;;5093071;28;20037;-74
2022/07/06 12:55:27;;;;;;;5.22;3.15;;;;;;;;;;5094775;28;20480;-74
2022/07/06 12:57:54;;;;;;;5.45;3.40;;;;;;;;;;5094861;28;20375;-74
2022/07/06 13:00:21;;;;;;;6.28;3.50;;;;;;;;;;5094173;28;20028;-75
2022/07/06 13:02:48;;;;;;;7.97;3.60;;;;;;;;;;5094619;28;20016;-74
2022/07/06 13:05:15;;;;;;;5.38;3.90;;;;;;;;;;5094489;28;20024;-75
2022/07/06 13:07:46;;;;;;;7.05;3.45;;;;;;;;;;5092885;28;20020;-74
2022/07/06 13:10:13;;;;;;;6.60;3.72;;;;;;;;;;5094432;28;20020;-74
2022/07/06 13:12:40;;;;;;;9.82;3.97;;;;;;;;;;5094146;28;20023;-74
2022/07/06 13:15:07;;;;;;;6.00;3.88;;;;;;;;;;5092734;28;20052;-74
2022/07/06 13:17:33;;;;;;;6.07;3.78;;;;;;;;;;5092576;28;20016;-73
2022/07/06 13:19:59;;;;;;;5.53;3.50;;;;;;;;;;5094181;28;20032;-73
2022/07/06 13:22:25;;;;;;;5.97;3.53;;;;;;;;;;5092643;28;20357;-74
2022/07/06 13:24:52;;;;;;;5.10;3.20;;;;;;;;;;5092955;28;20016;-74
2022/07/06 13:27:18;;;;;;;6.53;3.40;;;;;;;;;;5092936;28;20028;-74
2022/07/06 13:29:44;;;;;;;8.38;3.45;;;;;;;;;;5093956;28;20049;-73
2022/07/06 13:32:10;;;;;;;6.35;3.50;;;;;;;;;;5094101;28;20024;-74
2022/07/06 13:34:36;;;;;;;6.40;3.40;;;;;;;;;;5093962;28;20114;-74
2022/07/06 13:37:03;;;;;;;4.85;3.28;;;;;;;;;;5093637;28;20024;-74
2022/07/06 13:39:29;;;;;;;5.18;3.33;;;;;;;;;;5093797;28;20052;-74
2022/07/06 13:41:56;;;;;;;4.63;3.28;;;;;;;;;;5092199;28;20024;-75
2022/07/06 13:44:22;;;;;;;4.68;3.25;;;;;;;;;;5093872;28;20425;-76
2022/07/06 13:46:48;;;;;;;6.07;3.28;;;;;;;;;;5093667;28;20027;-75
2022/07/06 13:49:14;;;;;;;8.52;3.50;;;;;;;;;;5091846;28;20022;-74
2022/07/06 13:51:41;;;;;;;6.95;3.33;;;;;;;;;;5093940;28;20035;-75
2022/07/06 13:54:07;;;;;;;6.47;2.92;;;;;;;;;;5092505;28;20430;-75
2022/07/06 13:56:33;;;;;;;6.43;3.45;;;;;;;;;;5093374;28;20027;-75
2022/07/06 13:58:59;;;;;;;4.70;3.17;;;;;;;;;;5093744;28;20035;-75
2022/07/06 14:01:26;;;;;;;5.90;3.28;;;;;;;;;;5093713;28;20016;-74
2022/07/06 14:03:52;;;;;;;5.28;2.90;;;;;;;;;;5093455;28;20050;-75
2022/07/06 14:06:20;;;;;;;5.35;2.80;;;;;;;;;;5093856;28;20051;-75
2022/07/06 14:08:46;;;;;;;5.82;3.13;;;;;;;;;;5093625;28;20103;-75
2022/07/06 14:11:12;;;;;;;6.55;3.60;;;;;;;;;;5091947;28;20016;-75
2022/07/06 14:13:38;;;;;;;5.82;3.13;;;;;;;;;;5092002;28;20048;-75
2022/07/06 14:16:05;;;;;;;3.85;2.63;;;;;;;;;;5093568;28;20058;-75
2022/07/06 14:18:31;;;;;;;6.03;2.85;;;;;;;;;;5091858;28;20020;-76
2022/07/06 14:20:57;;;;;;;4.03;2.40;;;;;;;;;;5092246;28;20047;-76
2022/07/06 14:23:24;;;;;;;5.35;2.58;;;;;;;;;;5092246;28;20032;-76
2022/07/06 14:25:50;;;;;;;4.03;2.90;;;;;;;;;;5093127;28;20023;-76
2022/07/06 14:28:17;;;;;;;4.88;2.40;;;;;;;;;;5093457;28;20035;-75
2022/07/06 14:30:46;;;;;;;4.32;3.13;;;;;;;;;;5092058;28;20027;-76
2022/07/06 14:33:13;;;;;;;3.60;2.42;;;;;;;;;;5092896;28;20572;-76
2022/07/06 14:35:50;;;;;;;4.75;2.95;;;;;;;;;;5093317;28;20357;-75
2022/07/06 14:38:17;;;;;;;5.80;2.95;;;;;;;;;;5092942;28;20024;-76
2022/07/06 14:40:43;;;;;;;5.20;2.50;;;;;;;;;;5093242;28;20024;-76
2022/07/06 14:43:10;;;;;;;4.25;2.80;;;;;;;;;;5093158;28;20024;-75
2022/07/06 14:45:36;;;;;;;6.35;3.35;;;;;;;;;;5092877;28;20361;-75
2022/07/06 14:48:02;;;;;;;3.63;2.65;;;;;;;;;;5093074;28;20024;-74
2022/07/06 14:50:28;;;;;;;5.90;2.58;;;;;;;;;;5091822;28;20028;-74
2022/07/06 14:52:55;;;;;;;4.65;2.78;;;;;;;;;;5092795;28;20051;-75
2022/07/06 14:55:22;;;;;;;8.10;2.90;;;;;;;;;;5093133;28;20391;-74
2022/07/06 14:57:48;;;;;;;4.13;2.97;;;;;;;;;;5093085;28;20024;-74
2022/07/06 15:00:15;;;;;;;5.90;3.10;;;;;;;;;;5094135;28;20024;-74
2022/07/06 15:02:41;;;;;;;5.68;3.03;;;;;;;;;;5096900;28;20086;-75
2022/07/06 15:05:08;;;;;;;3.75;2.70;;;;;;;;;;5096917;28;20384;-74
2022/07/06 15:07:34;;;;;;;7.15;5.10;;;;;;;;;;5096501;28;20141;-73
2022/07/06 15:10:01;;;;;;;3.60;2.90;;;;;;;;;;5095518;28;20024;-73
2022/07/06 15:12:27;;;;;;;4.47;3.30;;;;;;;;;;5096775;28;20016;-73
2022/07/06 15:14:53;;;;;;;5.07;3.58;;;;;;;;;;5095928;28;20048;-73
2022/07/06 15:17:19;;;;;;;9.80;3.90;;;;;;;;;;5096583;28;20030;-74
2022/07/06 15:19:45;;;;;;;5.57;3.58;;;;;;;;;;5096526;28;20036;-75
2022/07/06 15:22:12;;;;;;;4.93;3.70;;;;;;;;;;5094923;28;20020;-74
2022/07/06 15:24:38;;;;;;;5.55;3.63;;;;;;;;;;5095312;28;20093;-75
2022/07/06 15:27:05;;;;;;;4.78;3.47;;;;;;;;;;5095253;28;20428;-73
2022/07/06 15:29:31;;;;;;;6.35;4.05;;;;;;;;;;5096133;28;20433;-74
2022/07/06 15:31:57;;;;;;;6.32;4.00;;;;;;;;;;5096340;28;20464;-75
2022/07/06 15:34:24;;;;;;;4.25;3.15;;;;;;;;;;5096388;28;20133;-74
2022/07/06 15:36:50;;;;;;;5.18;3.58;;;;;;;;;;5095982;28;20020;-74
2022/07/06 15:39:16;;;;;;;5.63;3.78;;;;;;;;;;5096282;28;20491;-74
2022/07/06 15:41:42;;;;;;;7.15;4.22;;;;;;;;;;5095803;28;20048;-75
2022/07/06 15:44:09;;;;;;;6.32;3.88;;;;;;;;;;5096075;28;20055;-74
2022/07/06 15:46:35;;;;;;;7.53;4.00;;;;;;;;;;5096126;28;20024;-75
2022/07/06 15:49:01;;;;;;;6.40;3.85;;;;;;;;;;5094407;28;20032;-75
2022/07/06 15:51:27;;;;;;;6.18;3.47;;;;;;;;;;5096092;28;20021;-75
2022/07/06 15:53:54;;;;;;;5.05;3.22;;;;;;;;;;5096077;28;20036;-75
2022/07/06 15:56:20;;;;;;;5.45;3.65;;;;;;;;;;5094227;28;20078;-75
2022/07/06 15:58:47;;;;;;;4.82;2.85;;;;;;;;;;5094604;28;20052;-74
2022/07/06 16:01:13;;;;;;;4.15;3.10;;;;;;;;;;5094565;28;20078;-75
2022/07/06 16:03:39;;;;;;;5.50;3.05;;;;;;;;;;5095431;28;20099;-75
2022/07/06 16:06:06;;;;;;;4.57;2.90;;;;;;;;;;5095726;28;20028;-75
2022/07/06 16:08:32;;;;;;;4.25;2.92;;;;;;;;;;5094451;28;20024;-74
2022/07/06 16:10:59;;;;;;;5.60;3.72;;;;;;;;;;5095432;28;20036;-75
2022/07/06 16:13:25;;;;;;;4.28;2.92;;;;;;;;;;5095321;28;20048;-74
2022/07/06 16:15:51;;;;;;;6.63;3.38;;;;;;;;;;5095447;28;20020;-75
2022/07/06 16:18:17;;;;;;;3.95;3.00;;;;;;;;;;5095135;28;20028;-74
2022/07/06 16:20:43;;;;;;;6.00;3.08;;;;;;;;;;5095417;28;20103;-74
2022/07/06 16:23:09;;;;;;;4.43;3.20;;;;;;;;;;5095668;28;20020;-74
2022/07/06 16:25:36;;;;;;;4.63;3.03;;;;;;;;;;5093767;28;20031;-74
2022/07/06 16:28:02;;;;;;;4.03;2.88;;;;;;;;;;5095225;28;20020;-74
2022/07/06 16:30:28;;;;;;;4.47;2.80;;;;;;;;;;5095188;28;20032;-74
2022/07/06 16:32:55;;;;;;;6.22;3.78;;;;;;;;;;5093502;28;20020;-74
2022/07/06 16:35:22;;;;;;;5.22;3.25;;;;;;;;;;5095173;28;20540;-74
2022/07/06 16:37:49;;;;;;;4.35;3.05;;;;;;;;;;5094758;28;20471;-75
2022/07/06 16:40:15;;;;;;;4.38;2.63;;;;;;;;;;5093858;28;20030;-75
2022/07/06 16:42:41;;;;;;;5.32;2.78;;;;;;;;;;5095366;28;20357;-75
2022/07/06 16:45:07;;;;;;;4.85;2.60;;;;;;;;;;5093356;28;20069;-74
2022/07/06 16:47:34;;;;;;;3.50;2.85;;;;;;;;;;5094958;28;20020;-74